sensor_id;sensor_type;location;lat;lon;timestamp;P1;durP1;ratioP1;P2;durP2;ratioP2
21148;SDS011;10732;51.472;6.466;2022-08-23T00:01:15;6.28;;;3.05;;
21148;SDS011;10732;51.472;6.466;2022-08-23T00:03:44;8.93;;;3.38;;
21148;SDS011;10732;51.472;6.466;2022-08-23T00:06:10;5.57;;;3.00;;
21148;SDS011;10732;51.472;6.466;2022-08-23T00:08:36;7.72;;;3.03;;
21148;SDS011;10732;51.472;6.466;2022-08-23T00:11:02;8.68;;;3.38;;
21148;SDS011;10732;51.472;6.466;2022-08-23T00:13:29;5.72;;;3.55;;
21148;SDS011;10732;51.472;6.466;2022-08-23T00:15:56;5.60;;;3.03;;
21148;SDS011;10732;51.472;6.466;2022-08-23T00:18:22;8.27;;;3.53;;
21148;SDS011;10732;51.472;6.466;2022-08-23T00:20:48;7.20;;;3.08;;
21148;SDS011;10732;51.472;6.466;2022-08-23T00:23:14;6.40;;;3.35;;
21148;SDS011;10732;51.472;6.466;2022-08-23T00:25:41;5.55;;;3.22;;
21148;SDS011;10732;51.472;6.466;2022-08-23T00:28:07;6.15;;;2.97;;
21148;SDS011;10732;51.472;6.466;2022-08-23T00:30:33;6.43;;;3.92;;
21148;SDS011;10732;51.472;6.466;2022-08-23T00:32:59;7.65;;;3.22;;
21148;SDS011;10732;51.472;6.466;2022-08-23T00:35:24;8.25;;;3.63;;
21148;SDS011;10732;51.472;6.466;2022-08-23T00:37:50;7.85;;;3.28;;
21148;SDS011;10732;51.472;6.466;2022-08-23T00:40:16;7.85;;;3.70;;
21148;SDS011;10732;51.472;6.466;2022-08-23T00:42:50;6.03;;;3.33;;
21148;SDS011;10732;51.472;6.466;2022-08-23T00:48:42;9.82;;;3.40;;
21148;SDS011;10732;51.472;6.466;2022-08-23T00:51:15;4.78;;;3.55;;
21148;SDS011;10732;51.472;6.466;2022-08-23T00:53:58;7.38;;;3.55;;
21148;SDS011;10732;51.472;6.466;2022-08-23T00:56:26;9.23;;;3.58;;
21148;SDS011;10732;51.472;6.466;2022-08-23T00:58:59;8.10;;;3.72;;
21148;SDS011;10732;51.472;6.466;2022-08-23T01:01:25;9.15;;;3.92;;
21148;SDS011;10732;51.472;6.466;2022-08-23T01:03:52;8.48;;;4.22;;
21148;SDS011;10732;51.472;6.466;2022-08-23T01:06:23;8.65;;;4.00;;
21148;SDS011;10732;51.472;6.466;2022-08-23T01:09:01;6.40;;;3.80;;
21148;SDS011;10732;51.472;6.466;2022-08-23T01:11:36;6.53;;;4.07;;
21148;SDS011;10732;51.472;6.466;2022-08-23T01:14:12;7.22;;;4.28;;
21148;SDS011;10732;51.472;6.466;2022-08-23T01:19:15;9.18;;;3.90;;
21148;SDS011;10732;51.472;6.466;2022-08-23T01:21:52;4.75;;;3.80;;
21148;SDS011;10732;51.472;6.466;2022-08-23T01:24:25;8.20;;;4.05;;
21148;SDS011;10732;51.472;6.466;2022-08-23T01:26:51;6.50;;;4.07;;
21148;SDS011;10732;51.472;6.466;2022-08-23T01:29:16;8.15;;;4.30;;
21148;SDS011;10732;51.472;6.466;2022-08-23T01:31:42;7.80;;;4.53;;
21148;SDS011;10732;51.472;6.466;2022-08-23T01:34:08;6.57;;;4.65;;
21148;SDS011;10732;51.472;6.466;2022-08-23T01:36:36;8.25;;;4.40;;
21148;SDS011;10732;51.472;6.466;2022-08-23T01:39:05;8.35;;;4.72;;
21148;SDS011;10732;51.472;6.466;2022-08-23T01:41:32;8.30;;;5.00;;
21148;SDS011;10732;51.472;6.466;2022-08-23T01:43:58;6.40;;;5.03;;
21148;SDS011;10732;51.472;6.466;2022-08-23T01:46:24;10.27;;;4.70;;
21148;SDS011;10732;51.472;6.466;2022-08-23T01:48:51;7.10;;;4.53;;
21148;SDS011;10732;51.472;6.466;2022-08-23T01:51:19;6.05;;;4.55;;
21148;SDS011;10732;51.472;6.466;2022-08-23T01:53:45;8.45;;;4.60;;
21148;SDS011;10732;51.472;6.466;2022-08-23T01:56:11;7.50;;;4.55;;
21148;SDS011;10732;51.472;6.466;2022-08-23T01:58:38;7.53;;;4.90;;
21148;SDS011;10732;51.472;6.466;2022-08-23T02:01:04;9.27;;;4.57;;
21148;SDS011;10732;51.472;6.466;2022-08-23T02:03:30;9.38;;;5.05;;
21148;SDS011;10732;51.472;6.466;2022-08-23T02:05:57;8.07;;;5.40;;
21148;SDS011;10732;51.472;6.466;2022-08-23T02:08:23;12.60;;;5.07;;
21148;SDS011;10732;51.472;6.466;2022-08-23T02:11:09;7.85;;;5.60;;
21148;SDS011;10732;51.472;6.466;2022-08-23T02:13:38;8.85;;;5.55;;
21148;SDS011;10732;51.472;6.466;2022-08-23T02:16:05;11.73;;;6.07;;
21148;SDS011;10732;51.472;6.466;2022-08-23T02:18:30;9.55;;;5.95;;
21148;SDS011;10732;51.472;6.466;2022-08-23T02:20:56;8.18;;;5.57;;
21148;SDS011;10732;51.472;6.466;2022-08-23T02:23:22;8.35;;;5.30;;
21148;SDS011;10732;51.472;6.466;2022-08-23T02:25:48;8.02;;;4.97;;
21148;SDS011;10732;51.472;6.466;2022-08-23T02:28:19;5.75;;;4.43;;
21148;SDS011;10732;51.472;6.466;2022-08-23T02:30:46;8.32;;;5.07;;
21148;SDS011;10732;51.472;6.466;2022-08-23T02:33:12;7.85;;;4.90;;
21148;SDS011;10732;51.472;6.466;2022-08-23T02:35:38;8.38;;;5.38;;
21148;SDS011;10732;51.472;6.466;2022-08-23T02:38:05;8.25;;;5.55;;
21148;SDS011;10732;51.472;6.466;2022-08-23T02:40:33;9.43;;;5.13;;
21148;SDS011;10732;51.472;6.466;2022-08-23T02:42:59;8.32;;;5.32;;
21148;SDS011;10732;51.472;6.466;2022-08-23T02:45:26;8.13;;;5.30;;
21148;SDS011;10732;51.472;6.466;2022-08-23T02:47:52;6.82;;;5.25;;
21148;SDS011;10732;51.472;6.466;2022-08-23T02:50:21;7.63;;;5.38;;
21148;SDS011;10732;51.472;6.466;2022-08-23T02:52:47;9.60;;;5.82;;
21148;SDS011;10732;51.472;6.466;2022-08-23T02:55:12;9.32;;;5.50;;
21148;SDS011;10732;51.472;6.466;2022-08-23T02:57:38;13.07;;;5.70;;
21148;SDS011;10732;51.472;6.466;2022-08-23T03:00:04;7.80;;;5.35;;
21148;SDS011;10732;51.472;6.466;2022-08-23T03:02:34;11.23;;;5.80;;
21148;SDS011;10732;51.472;6.466;2022-08-23T03:05:00;10.98;;;5.90;;
21148;SDS011;10732;51.472;6.466;2022-08-23T03:07:26;11.48;;;5.53;;
21148;SDS011;10732;51.472;6.466;2022-08-23T03:09:52;8.95;;;6.18;;
21148;SDS011;10732;51.472;6.466;2022-08-23T03:12:17;9.95;;;6.53;;
21148;SDS011;10732;51.472;6.466;2022-08-23T03:14:43;7.80;;;6.70;;
21148;SDS011;10732;51.472;6.466;2022-08-23T03:17:08;11.07;;;6.53;;
21148;SDS011;10732;51.472;6.466;2022-08-23T03:19:34;7.57;;;6.07;;
21148;SDS011;10732;51.472;6.466;2022-08-23T03:22:00;10.98;;;6.40;;
21148;SDS011;10732;51.472;6.466;2022-08-23T03:24:26;10.40;;;6.82;;
21148;SDS011;10732;51.472;6.466;2022-08-23T03:26:51;11.52;;;7.32;;
21148;SDS011;10732;51.472;6.466;2022-08-23T03:29:17;11.77;;;6.57;;
21148;SDS011;10732;51.472;6.466;2022-08-23T03:31:43;9.70;;;6.03;;
21148;SDS011;10732;51.472;6.466;2022-08-23T03:34:09;9.20;;;6.45;;
21148;SDS011;10732;51.472;6.466;2022-08-23T03:36:36;8.07;;;6.32;;
21148;SDS011;10732;51.472;6.466;2022-08-23T03:39:02;8.40;;;6.50;;
21148;SDS011;10732;51.472;6.466;2022-08-23T03:41:29;10.82;;;5.95;;
21148;SDS011;10732;51.472;6.466;2022-08-23T03:43:54;8.27;;;6.65;;
21148;SDS011;10732;51.472;6.466;2022-08-23T03:46:20;9.63;;;6.07;;
21148;SDS011;10732;51.472;6.466;2022-08-23T03:48:52;7.80;;;6.30;;
21148;SDS011;10732;51.472;6.466;2022-08-23T03:51:20;9.45;;;6.60;;
21148;SDS011;10732;51.472;6.466;2022-08-23T03:53:47;10.15;;;7.00;;
21148;SDS011;10732;51.472;6.466;2022-08-23T03:56:23;11.48;;;7.63;;
21148;SDS011;10732;51.472;6.466;2022-08-23T03:58:51;11.45;;;7.32;;
21148;SDS011;10732;51.472;6.466;2022-08-23T04:01:18;11.68;;;7.22;;
21148;SDS011;10732;51.472;6.466;2022-08-23T04:03:43;14.23;;;7.80;;
21148;SDS011;10732;51.472;6.466;2022-08-23T04:06:09;11.40;;;7.57;;
21148;SDS011;10732;51.472;6.466;2022-08-23T04:08:35;12.35;;;7.47;;
21148;SDS011;10732;51.472;6.466;2022-08-23T04:11:01;10.25;;;7.10;;
21148;SDS011;10732;51.472;6.466;2022-08-23T04:13:27;10.02;;;7.45;;
21148;SDS011;10732;51.472;6.466;2022-08-23T04:15:53;11.18;;;7.22;;
21148;SDS011;10732;51.472;6.466;2022-08-23T04:18:20;10.65;;;7.35;;
21148;SDS011;10732;51.472;6.466;2022-08-23T04:20:46;20.42;;;8.23;;
21148;SDS011;10732;51.472;6.466;2022-08-23T04:23:13;41.55;;;10.35;;
21148;SDS011;10732;51.472;6.466;2022-08-23T04:25:38;38.85;;;11.52;;
21148;SDS011;10732;51.472;6.466;2022-08-23T04:28:04;62.15;;;12.10;;
21148;SDS011;10732;51.472;6.466;2022-08-23T04:30:31;133.55;;;21.38;;
21148;SDS011;10732;51.472;6.466;2022-08-23T04:32:57;135.95;;;21.15;;
21148;SDS011;10732;51.472;6.466;2022-08-23T04:35:23;110.65;;;19.58;;
21148;SDS011;10732;51.472;6.466;2022-08-23T04:37:49;63.65;;;14.35;;
21148;SDS011;10732;51.472;6.466;2022-08-23T04:40:15;53.45;;;13.43;;
21148;SDS011;10732;51.472;6.466;2022-08-23T04:43:00;22.33;;;11.25;;
21148;SDS011;10732;51.472;6.466;2022-08-23T04:45:26;17.38;;;10.38;;
21148;SDS011;10732;51.472;6.466;2022-08-23T04:47:52;15.27;;;10.68;;
21148;SDS011;10732;51.472;6.466;2022-08-23T04:50:18;10.85;;;9.35;;
21148;SDS011;10732;51.472;6.466;2022-08-23T04:52:44;18.05;;;10.27;;
21148;SDS011;10732;51.472;6.466;2022-08-23T04:55:09;13.50;;;10.13;;
21148;SDS011;10732;51.472;6.466;2022-08-23T04:57:37;13.48;;;9.63;;
21148;SDS011;10732;51.472;6.466;2022-08-23T05:00:03;11.45;;;9.10;;
21148;SDS011;10732;51.472;6.466;2022-08-23T05:02:29;14.43;;;8.38;;
21148;SDS011;10732;51.472;6.466;2022-08-23T05:04:55;12.85;;;9.15;;
21148;SDS011;10732;51.472;6.466;2022-08-23T05:07:20;23.60;;;9.57;;
21148;SDS011;10732;51.472;6.466;2022-08-23T05:09:46;22.00;;;7.15;;
21148;SDS011;10732;51.472;6.466;2022-08-23T05:12:12;12.77;;;6.03;;
21148;SDS011;10732;51.472;6.466;2022-08-23T05:14:37;11.57;;;5.70;;
21148;SDS011;10732;51.472;6.466;2022-08-23T05:17:03;12.20;;;5.75;;
21148;SDS011;10732;51.472;6.466;2022-08-23T05:19:29;9.93;;;4.88;;
21148;SDS011;10732;51.472;6.466;2022-08-23T05:21:54;11.45;;;5.20;;
21148;SDS011;10732;51.472;6.466;2022-08-23T05:24:20;11.07;;;5.32;;
21148;SDS011;10732;51.472;6.466;2022-08-23T05:26:45;11.02;;;4.97;;
21148;SDS011;10732;51.472;6.466;2022-08-23T05:29:11;13.13;;;5.20;;
21148;SDS011;10732;51.472;6.466;2022-08-23T05:31:36;11.10;;;5.18;;
21148;SDS011;10732;51.472;6.466;2022-08-23T05:34:02;8.27;;;4.93;;
21148;SDS011;10732;51.472;6.466;2022-08-23T05:36:28;8.30;;;5.22;;
21148;SDS011;10732;51.472;6.466;2022-08-23T05:38:54;12.15;;;5.75;;
21148;SDS011;10732;51.472;6.466;2022-08-23T05:41:20;7.60;;;5.20;;
21148;SDS011;10732;51.472;6.466;2022-08-23T05:43:46;10.27;;;5.40;;
21148;SDS011;10732;51.472;6.466;2022-08-23T05:46:13;9.50;;;5.20;;
21148;SDS011;10732;51.472;6.466;2022-08-23T05:48:41;11.02;;;5.10;;
21148;SDS011;10732;51.472;6.466;2022-08-23T05:51:12;11.70;;;5.45;;
21148;SDS011;10732;51.472;6.466;2022-08-23T05:53:41;10.95;;;5.60;;
21148;SDS011;10732;51.472;6.466;2022-08-23T05:56:08;49.13;;;13.65;;
21148;SDS011;10732;51.472;6.466;2022-08-23T05:58:35;9.18;;;4.55;;
21148;SDS011;10732;51.472;6.466;2022-08-23T06:01:00;10.73;;;4.97;;
21148;SDS011;10732;51.472;6.466;2022-08-23T06:03:26;8.13;;;4.90;;
21148;SDS011;10732;51.472;6.466;2022-08-23T06:05:58;9.90;;;5.45;;
21148;SDS011;10732;51.472;6.466;2022-08-23T06:08:24;9.68;;;5.22;;
21148;SDS011;10732;51.472;6.466;2022-08-23T06:11:01;9.52;;;5.45;;
21148;SDS011;10732;51.472;6.466;2022-08-23T06:13:38;24.02;;;8.20;;
21148;SDS011;10732;51.472;6.466;2022-08-23T06:16:12;15.05;;;6.78;;
21148;SDS011;10732;51.472;6.466;2022-08-23T06:18:40;9.68;;;5.63;;
21148;SDS011;10732;51.472;6.466;2022-08-23T06:21:07;11.77;;;5.80;;
21148;SDS011;10732;51.472;6.466;2022-08-23T06:23:35;12.43;;;5.18;;
21148;SDS011;10732;51.472;6.466;2022-08-23T06:26:08;9.82;;;5.38;;
21148;SDS011;10732;51.472;6.466;2022-08-23T06:28:42;10.15;;;5.22;;
21148;SDS011;10732;51.472;6.466;2022-08-23T06:31:09;9.02;;;5.65;;
21148;SDS011;10732;51.472;6.466;2022-08-23T06:33:35;10.35;;;4.78;;
21148;SDS011;10732;51.472;6.466;2022-08-23T06:36:06;9.77;;;5.32;;
21148;SDS011;10732;51.472;6.466;2022-08-23T06:38:34;11.73;;;5.20;;
21148;SDS011;10732;51.472;6.466;2022-08-23T06:41:01;10.65;;;5.65;;
21148;SDS011;10732;51.472;6.466;2022-08-23T06:43:28;12.85;;;6.25;;
21148;SDS011;10732;51.472;6.466;2022-08-23T06:45:54;9.27;;;5.75;;
21148;SDS011;10732;51.472;6.466;2022-08-23T06:48:29;11.07;;;6.13;;
21148;SDS011;10732;51.472;6.466;2022-08-23T06:50:55;12.50;;;6.00;;
21148;SDS011;10732;51.472;6.466;2022-08-23T06:53:20;13.70;;;5.93;;
21148;SDS011;10732;51.472;6.466;2022-08-23T06:55:46;12.57;;;5.65;;
21148;SDS011;10732;51.472;6.466;2022-08-23T06:58:11;10.98;;;5.85;;
21148;SDS011;10732;51.472;6.466;2022-08-23T07:00:37;12.35;;;6.00;;
21148;SDS011;10732;51.472;6.466;2022-08-23T07:03:03;11.38;;;5.93;;
21148;SDS011;10732;51.472;6.466;2022-08-23T07:05:28;11.35;;;5.85;;
21148;SDS011;10732;51.472;6.466;2022-08-23T07:07:55;10.60;;;5.72;;
21148;SDS011;10732;51.472;6.466;2022-08-23T07:10:20;11.38;;;6.45;;
21148;SDS011;10732;51.472;6.466;2022-08-23T07:12:46;10.77;;;5.05;;
21148;SDS011;10732;51.472;6.466;2022-08-23T07:15:12;12.43;;;6.75;;
21148;SDS011;10732;51.472;6.466;2022-08-23T07:17:38;15.77;;;5.53;;
21148;SDS011;10732;51.472;6.466;2022-08-23T07:20:03;15.77;;;5.75;;
21148;SDS011;10732;51.472;6.466;2022-08-23T07:22:29;11.38;;;6.35;;
21148;SDS011;10732;51.472;6.466;2022-08-23T07:24:55;11.75;;;6.03;;
21148;SDS011;10732;51.472;6.466;2022-08-23T07:27:21;12.70;;;6.57;;
21148;SDS011;10732;51.472;6.466;2022-08-23T07:29:46;11.43;;;6.00;;
21148;SDS011;10732;51.472;6.466;2022-08-23T07:32:12;8.35;;;5.78;;
21148;SDS011;10732;51.472;6.466;2022-08-23T07:34:37;10.90;;;5.57;;
21148;SDS011;10732;51.472;6.466;2022-08-23T07:37:03;10.02;;;5.25;;
21148;SDS011;10732;51.472;6.466;2022-08-23T07:39:30;10.00;;;4.50;;
21148;SDS011;10732;51.472;6.466;2022-08-23T07:41:57;10.43;;;5.20;;
21148;SDS011;10732;51.472;6.466;2022-08-23T07:44:24;9.23;;;5.65;;
21148;SDS011;10732;51.472;6.466;2022-08-23T07:46:49;10.57;;;5.40;;
21148;SDS011;10732;51.472;6.466;2022-08-23T07:49:15;8.85;;;5.80;;
21148;SDS011;10732;51.472;6.466;2022-08-23T07:51:43;9.35;;;4.82;;
21148;SDS011;10732;51.472;6.466;2022-08-23T07:54:11;11.50;;;5.50;;
21148;SDS011;10732;51.472;6.466;2022-08-23T07:56:37;13.52;;;5.93;;
21148;SDS011;10732;51.472;6.466;2022-08-23T07:59:03;11.48;;;5.32;;
21148;SDS011;10732;51.472;6.466;2022-08-23T08:01:29;15.70;;;5.25;;
21148;SDS011;10732;51.472;6.466;2022-08-23T08:03:56;9.90;;;5.55;;
21148;SDS011;10732;51.472;6.466;2022-08-23T08:08:51;9.48;;;5.93;;
21148;SDS011;10732;51.472;6.466;2022-08-23T08:11:19;17.52;;;6.35;;
21148;SDS011;10732;51.472;6.466;2022-08-23T08:13:47;11.57;;;5.07;;
21148;SDS011;10732;51.472;6.466;2022-08-23T08:16:21;10.68;;;4.85;;
21148;SDS011;10732;51.472;6.466;2022-08-23T08:18:47;12.18;;;4.47;;
21148;SDS011;10732;51.472;6.466;2022-08-23T08:21:14;11.63;;;4.53;;
21148;SDS011;10732;51.472;6.466;2022-08-23T08:23:41;10.85;;;4.90;;
21148;SDS011;10732;51.472;6.466;2022-08-23T08:26:07;7.90;;;3.88;;
21148;SDS011;10732;51.472;6.466;2022-08-23T08:28:33;12.18;;;4.97;;
21148;SDS011;10732;51.472;6.466;2022-08-23T08:31:00;12.15;;;5.13;;
21148;SDS011;10732;51.472;6.466;2022-08-23T08:33:26;13.20;;;4.70;;
21148;SDS011;10732;51.472;6.466;2022-08-23T08:35:53;13.10;;;5.45;;
21148;SDS011;10732;51.472;6.466;2022-08-23T08:38:19;11.70;;;4.28;;
21148;SDS011;10732;51.472;6.466;2022-08-23T08:40:45;10.57;;;4.20;;
21148;SDS011;10732;51.472;6.466;2022-08-23T08:43:41;6.40;;;3.45;;
21148;SDS011;10732;51.472;6.466;2022-08-23T08:48:57;8.02;;;3.90;;
21148;SDS011;10732;51.472;6.466;2022-08-23T08:54:00;6.65;;;3.80;;
21148;SDS011;10732;51.472;6.466;2022-08-23T08:56:31;9.15;;;4.50;;
21148;SDS011;10732;51.472;6.466;2022-08-23T08:59:02;12.68;;;5.68;;
21148;SDS011;10732;51.472;6.466;2022-08-23T09:01:32;11.70;;;4.40;;
21148;SDS011;10732;51.472;6.466;2022-08-23T09:04:00;13.93;;;5.45;;
21148;SDS011;10732;51.472;6.466;2022-08-23T09:06:30;11.35;;;4.45;;
21148;SDS011;10732;51.472;6.466;2022-08-23T09:14:23;16.20;;;5.53;;
21148;SDS011;10732;51.472;6.466;2022-08-23T09:17:04;10.93;;;5.53;;
21148;SDS011;10732;51.472;6.466;2022-08-23T09:19:42;10.93;;;6.65;;
21148;SDS011;10732;51.472;6.466;2022-08-23T09:22:12;11.40;;;5.43;;
21148;SDS011;10732;51.472;6.466;2022-08-23T09:24:39;15.48;;;6.10;;
21148;SDS011;10732;51.472;6.466;2022-08-23T09:27:05;10.68;;;4.85;;
21148;SDS011;10732;51.472;6.466;2022-08-23T09:29:36;9.65;;;5.60;;
21148;SDS011;10732;51.472;6.466;2022-08-23T09:32:04;10.85;;;4.82;;
21148;SDS011;10732;51.472;6.466;2022-08-23T09:34:49;13.63;;;4.90;;
21148;SDS011;10732;51.472;6.466;2022-08-23T09:39:41;11.38;;;5.28;;
21148;SDS011;10732;51.472;6.466;2022-08-23T09:42:25;10.60;;;5.00;;
21148;SDS011;10732;51.472;6.466;2022-08-23T09:44:56;9.70;;;4.50;;
21148;SDS011;10732;51.472;6.466;2022-08-23T09:47:29;11.70;;;5.13;;
21148;SDS011;10732;51.472;6.466;2022-08-23T09:49:58;7.97;;;3.90;;
21148;SDS011;10732;51.472;6.466;2022-08-23T09:52:48;10.30;;;5.00;;
21148;SDS011;10732;51.472;6.466;2022-08-23T09:55:52;11.57;;;4.88;;
21148;SDS011;10732;51.472;6.466;2022-08-23T09:58:18;12.15;;;5.65;;
21148;SDS011;10732;51.472;6.466;2022-08-23T10:03:30;11.93;;;5.03;;
21148;SDS011;10732;51.472;6.466;2022-08-23T10:05:59;10.98;;;5.75;;
21148;SDS011;10732;51.472;6.466;2022-08-23T10:08:27;11.77;;;5.93;;
21148;SDS011;10732;51.472;6.466;2022-08-23T10:11:12;9.15;;;4.50;;
21148;SDS011;10732;51.472;6.466;2022-08-23T10:13:54;11.13;;;5.95;;
21148;SDS011;10732;51.472;6.466;2022-08-23T10:16:36;8.55;;;5.50;;
21148;SDS011;10732;51.472;6.466;2022-08-23T10:19:26;17.90;;;5.47;;
21148;SDS011;10732;51.472;6.466;2022-08-23T10:21:58;9.85;;;4.20;;
21148;SDS011;10732;51.472;6.466;2022-08-23T10:27:38;7.47;;;3.50;;
21148;SDS011;10732;51.472;6.466;2022-08-23T10:30:50;8.80;;;3.65;;
21148;SDS011;10732;51.472;6.466;2022-08-23T10:33:25;8.15;;;3.85;;
21148;SDS011;10732;51.472;6.466;2022-08-23T10:36:14;7.63;;;3.80;;
21148;SDS011;10732;51.472;6.466;2022-08-23T10:39:29;9.10;;;4.53;;
21148;SDS011;10732;51.472;6.466;2022-08-23T10:42:00;12.73;;;4.50;;
21148;SDS011;10732;51.472;6.466;2022-08-23T10:47:27;6.65;;;3.90;;
21148;SDS011;10732;51.472;6.466;2022-08-23T10:50:07;11.18;;;4.05;;
21148;SDS011;10732;51.472;6.466;2022-08-23T10:55:23;11.52;;;3.95;;
21148;SDS011;10732;51.472;6.466;2022-08-23T10:58:15;10.07;;;3.53;;
21148;SDS011;10732;51.472;6.466;2022-08-23T11:00:45;9.70;;;3.50;;
21148;SDS011;10732;51.472;6.466;2022-08-23T11:08:58;6.75;;;2.80;;
21148;SDS011;10732;51.472;6.466;2022-08-23T11:26:08;8.10;;;3.75;;
21148;SDS011;10732;51.472;6.466;2022-08-23T11:28:43;6.90;;;2.97;;
21148;SDS011;10732;51.472;6.466;2022-08-23T11:43:39;6.53;;;2.78;;
21148;SDS011;10732;51.472;6.466;2022-08-23T11:48:48;9.52;;;3.22;;
21148;SDS011;10732;51.472;6.466;2022-08-23T12:08:56;9.93;;;3.33;;
21148;SDS011;10732;51.472;6.466;2022-08-23T12:16:55;4.68;;;2.10;;
21148;SDS011;10732;51.472;6.466;2022-08-23T12:19:37;9.57;;;2.70;;
21148;SDS011;10732;51.472;6.466;2022-08-23T12:22:09;5.18;;;2.25;;
21148;SDS011;10732;51.472;6.466;2022-08-23T12:24:45;5.97;;;2.78;;
21148;SDS011;10732;51.472;6.466;2022-08-23T12:29:45;4.80;;;2.40;;
21148;SDS011;10732;51.472;6.466;2022-08-23T12:32:36;6.15;;;2.45;;
21148;SDS011;10732;51.472;6.466;2022-08-23T12:40:07;4.28;;;2.35;;
21148;SDS011;10732;51.472;6.466;2022-08-23T12:42:38;8.80;;;2.70;;
21148;SDS011;10732;51.472;6.466;2022-08-23T12:47:42;4.57;;;2.40;;
21148;SDS011;10732;51.472;6.466;2022-08-23T12:50:32;6.47;;;2.97;;
21148;SDS011;10732;51.472;6.466;2022-08-23T12:53:10;8.95;;;2.60;;
21148;SDS011;10732;51.472;6.466;2022-08-23T12:55:43;3.83;;;2.50;;
21148;SDS011;10732;51.472;6.466;2022-08-23T12:58:13;6.85;;;2.33;;
21148;SDS011;10732;51.472;6.466;2022-08-23T13:00:41;8.77;;;2.63;;
21148;SDS011;10732;51.472;6.466;2022-08-23T13:03:23;6.63;;;2.40;;
21148;SDS011;10732;51.472;6.466;2022-08-23T13:06:10;7.32;;;2.67;;
21148;SDS011;10732;51.472;6.466;2022-08-23T13:11:26;3.35;;;2.20;;
21148;SDS011;10732;51.472;6.466;2022-08-23T13:13:55;6.95;;;2.03;;
21148;SDS011;10732;51.472;6.466;2022-08-23T13:16:22;6.28;;;2.50;;
21148;SDS011;10732;51.472;6.466;2022-08-23T13:24:37;7.88;;;2.20;;
21148;SDS011;10732;51.472;6.466;2022-08-23T13:29:48;3.33;;;2.00;;
21148;SDS011;10732;51.472;6.466;2022-08-23T13:34:51;5.78;;;2.10;;
21148;SDS011;10732;51.472;6.466;2022-08-23T13:39:58;8.43;;;2.20;;
21148;SDS011;10732;51.472;6.466;2022-08-23T13:42:35;4.38;;;1.90;;
21148;SDS011;10732;51.472;6.466;2022-08-23T13:45:14;5.90;;;2.08;;
21148;SDS011;10732;51.472;6.466;2022-08-23T13:47:47;4.47;;;2.20;;
21148;SDS011;10732;51.472;6.466;2022-08-23T13:50:24;4.93;;;2.15;;
21148;SDS011;10732;51.472;6.466;2022-08-23T13:52:53;5.22;;;2.20;;
21148;SDS011;10732;51.472;6.466;2022-08-23T13:55:19;2.90;;;2.05;;
21148;SDS011;10732;51.472;6.466;2022-08-23T13:57:45;6.53;;;2.25;;
21148;SDS011;10732;51.472;6.466;2022-08-23T14:00:11;5.68;;;2.22;;
21148;SDS011;10732;51.472;6.466;2022-08-23T14:02:37;3.95;;;1.92;;
21148;SDS011;10732;51.472;6.466;2022-08-23T14:05:06;3.85;;;1.95;;
21148;SDS011;10732;51.472;6.466;2022-08-23T14:07:33;5.45;;;2.17;;
21148;SDS011;10732;51.472;6.466;2022-08-23T14:09:59;6.15;;;2.30;;
21148;SDS011;10732;51.472;6.466;2022-08-23T14:12:31;4.25;;;2.03;;
21148;SDS011;10732;51.472;6.466;2022-08-23T14:14:58;3.85;;;2.40;;
21148;SDS011;10732;51.472;6.466;2022-08-23T14:17:26;3.95;;;2.20;;
21148;SDS011;10732;51.472;6.466;2022-08-23T14:19:52;4.60;;;2.28;;
21148;SDS011;10732;51.472;6.466;2022-08-23T14:22:18;3.75;;;2.30;;
21148;SDS011;10732;51.472;6.466;2022-08-23T14:24:43;5.05;;;2.38;;
21148;SDS011;10732;51.472;6.466;2022-08-23T14:27:10;5.38;;;1.77;;
21148;SDS011;10732;51.472;6.466;2022-08-23T14:29:35;3.50;;;2.00;;
21148;SDS011;10732;51.472;6.466;2022-08-23T14:32:01;5.60;;;2.17;;
21148;SDS011;10732;51.472;6.466;2022-08-23T14:34:28;6.63;;;2.03;;
21148;SDS011;10732;51.472;6.466;2022-08-23T14:36:54;5.80;;;2.22;;
21148;SDS011;10732;51.472;6.466;2022-08-23T14:39:21;5.85;;;2.28;;
21148;SDS011;10732;51.472;6.466;2022-08-23T14:41:47;4.53;;;1.88;;
21148;SDS011;10732;51.472;6.466;2022-08-23T14:44:14;3.05;;;2.00;;
21148;SDS011;10732;51.472;6.466;2022-08-23T14:46:40;5.22;;;2.10;;
21148;SDS011;10732;51.472;6.466;2022-08-23T14:49:09;4.03;;;2.03;;
21148;SDS011;10732;51.472;6.466;2022-08-23T14:51:38;6.50;;;2.20;;
21148;SDS011;10732;51.472;6.466;2022-08-23T14:54:07;2.58;;;1.85;;
21148;SDS011;10732;51.472;6.466;2022-08-23T14:56:37;5.30;;;2.15;;
21148;SDS011;10732;51.472;6.466;2022-08-23T14:59:03;4.68;;;1.95;;
21148;SDS011;10732;51.472;6.466;2022-08-23T15:01:28;4.20;;;1.90;;
21148;SDS011;10732;51.472;6.466;2022-08-23T15:03:54;5.25;;;1.98;;
21148;SDS011;10732;51.472;6.466;2022-08-23T15:06:19;4.32;;;1.77;;
21148;SDS011;10732;51.472;6.466;2022-08-23T15:08:46;5.45;;;1.70;;
21148;SDS011;10732;51.472;6.466;2022-08-23T15:11:12;3.85;;;1.77;;
21148;SDS011;10732;51.472;6.466;2022-08-23T15:13:39;5.70;;;2.05;;
21148;SDS011;10732;51.472;6.466;2022-08-23T15:16:06;3.97;;;2.00;;
21148;SDS011;10732;51.472;6.466;2022-08-23T15:18:33;4.25;;;1.88;;
21148;SDS011;10732;51.472;6.466;2022-08-23T15:21:00;4.18;;;1.85;;
21148;SDS011;10732;51.472;6.466;2022-08-23T15:23:26;8.00;;;2.22;;
21148;SDS011;10732;51.472;6.466;2022-08-23T15:25:52;3.78;;;1.80;;
21148;SDS011;10732;51.472;6.466;2022-08-23T15:28:19;6.20;;;2.20;;
21148;SDS011;10732;51.472;6.466;2022-08-23T15:30:45;4.40;;;1.90;;
21148;SDS011;10732;51.472;6.466;2022-08-23T15:33:12;3.20;;;1.92;;
21148;SDS011;10732;51.472;6.466;2022-08-23T15:35:46;4.65;;;2.00;;
21148;SDS011;10732;51.472;6.466;2022-08-23T15:38:16;3.17;;;2.03;;
21148;SDS011;10732;51.472;6.466;2022-08-23T15:40:42;4.40;;;1.73;;
21148;SDS011;10732;51.472;6.466;2022-08-23T15:43:09;6.93;;;1.70;;
21148;SDS011;10732;51.472;6.466;2022-08-23T15:45:35;3.88;;;2.10;;
21148;SDS011;10732;51.472;6.466;2022-08-23T15:48:01;4.45;;;2.00;;
21148;SDS011;10732;51.472;6.466;2022-08-23T15:50:36;6.05;;;2.00;;
21148;SDS011;10732;51.472;6.466;2022-08-23T15:53:01;2.85;;;1.70;;
21148;SDS011;10732;51.472;6.466;2022-08-23T15:55:28;3.67;;;1.60;;
21148;SDS011;10732;51.472;6.466;2022-08-23T15:57:56;4.50;;;1.73;;
21148;SDS011;10732;51.472;6.466;2022-08-23T16:00:22;4.07;;;1.52;;
21148;SDS011;10732;51.472;6.466;2022-08-23T16:02:49;2.95;;;1.50;;
21148;SDS011;10732;51.472;6.466;2022-08-23T16:05:16;2.42;;;1.60;;
21148;SDS011;10732;51.472;6.466;2022-08-23T16:07:41;4.78;;;1.52;;
21148;SDS011;10732;51.472;6.466;2022-08-23T16:10:07;3.97;;;1.70;;
21148;SDS011;10732;51.472;6.466;2022-08-23T16:12:36;3.13;;;1.65;;
21148;SDS011;10732;51.472;6.466;2022-08-23T16:15:02;3.03;;;1.35;;
21148;SDS011;10732;51.472;6.466;2022-08-23T16:17:28;4.35;;;1.63;;
21148;SDS011;10732;51.472;6.466;2022-08-23T16:19:54;3.08;;;1.20;;
21148;SDS011;10732;51.472;6.466;2022-08-23T16:22:20;2.05;;;1.40;;
21148;SDS011;10732;51.472;6.466;2022-08-23T16:24:45;5.68;;;1.33;;
21148;SDS011;10732;51.472;6.466;2022-08-23T16:27:11;3.55;;;1.20;;
21148;SDS011;10732;51.472;6.466;2022-08-23T16:29:36;3.25;;;1.33;;
21148;SDS011;10732;51.472;6.466;2022-08-23T16:32:05;3.28;;;1.20;;
21148;SDS011;10732;51.472;6.466;2022-08-23T16:34:31;5.05;;;1.45;;
21148;SDS011;10732;51.472;6.466;2022-08-23T16:36:58;1.73;;;1.38;;
21148;SDS011;10732;51.472;6.466;2022-08-23T16:39:28;2.80;;;1.38;;
21148;SDS011;10732;51.472;6.466;2022-08-23T16:41:56;2.80;;;1.40;;
21148;SDS011;10732;51.472;6.466;2022-08-23T16:44:22;2.58;;;1.25;;
21148;SDS011;10732;51.472;6.466;2022-08-23T16:46:47;4.70;;;1.48;;
21148;SDS011;10732;51.472;6.466;2022-08-23T16:49:15;2.58;;;1.40;;
21148;SDS011;10732;51.472;6.466;2022-08-23T16:51:42;4.40;;;1.23;;